createdAt,value
2019-04-27T00:02:13.487Z,13.90
2019-04-27T00:05:14.308Z,13.90
2019-04-27T00:07:51.393Z,13.80
2019-04-27T00:10:28.664Z,13.70
2019-04-27T00:13:02.204Z,13.70
2019-04-27T00:15:55.246Z,13.60
2019-04-27T00:18:54.865Z,13.60
2019-04-27T00:21:35.059Z,13.50
2019-04-27T00:24:06.220Z,13.60
2019-04-27T00:26:37.344Z,13.50
2019-04-27T00:29:09.628Z,13.50
2019-04-27T00:31:40.863Z,13.50
2019-04-27T00:34:13.318Z,13.50
2019-04-27T00:36:58.554Z,13.40
2019-04-27T00:39:34.803Z,13.30
2019-04-27T00:42:05.944Z,13.30
2019-04-27T00:44:37.099Z,13.30
2019-04-27T00:47:08.294Z,13.30
2019-04-27T00:49:39.491Z,13.20
2019-04-27T00:52:10.605Z,13.20
2019-04-27T00:54:41.782Z,13.20
2019-04-27T00:57:24.530Z,13.10
2019-04-27T01:00:19.039Z,13.10
2019-04-27T01:03:11.605Z,13.00
2019-04-27T01:05:43.115Z,13.00
2019-04-27T01:08:14.198Z,13.00
2019-04-27T01:10:45.290Z,12.90
2019-04-27T01:13:16.470Z,12.90
2019-04-27T01:15:47.527Z,12.90
2019-04-27T01:18:19.476Z,12.80
2019-04-27T01:20:51.227Z,12.80
2019-04-27T01:23:22.227Z,12.80
2019-04-27T01:26:12.527Z,12.70
2019-04-27T01:28:49.364Z,12.70
2019-04-27T01:31:20.737Z,12.60
2019-04-27T01:33:51.868Z,12.60
2019-04-27T01:36:22.933Z,12.70
2019-04-27T01:38:54.137Z,12.60
2019-04-27T01:41:26.114Z,12.60
2019-04-27T01:43:59.139Z,12.60
2019-04-27T01:46:30.597Z,12.60
2019-04-27T01:49:01.716Z,12.60
2019-04-27T01:51:32.787Z,12.60
2019-04-27T01:54:05.579Z,12.60
2019-04-27T01:56:36.664Z,12.50
2019-04-27T01:59:08.685Z,12.50
2019-04-27T02:02:03.208Z,12.50
2019-04-27T02:04:57.459Z,12.50
2019-04-27T02:07:30.059Z,12.50
2019-04-27T02:10:01.324Z,12.40
2019-04-27T02:12:32.492Z,12.40
2019-04-27T02:15:03.613Z,12.40
2019-04-27T02:17:34.735Z,12.40
2019-04-27T02:20:07.242Z,12.40
2019-04-27T02:22:38.488Z,12.40
2019-04-27T02:25:09.752Z,12.40
2019-04-27T02:27:42.434Z,12.40
2019-04-27T02:30:31.235Z,12.40
2019-04-27T02:33:20.386Z,12.40
2019-04-27T02:35:51.859Z,12.40
2019-04-27T02:38:22.875Z,12.40
2019-04-27T02:41:01.701Z,12.40
2019-04-27T02:43:54.828Z,12.40
2019-04-27T02:46:25.891Z,12.40
2019-04-27T02:49:03.185Z,12.40
2019-04-27T02:51:42.951Z,12.40
2019-04-27T02:54:14.259Z,12.40
2019-04-27T02:56:45.422Z,12.30
2019-04-27T02:59:16.455Z,12.20
2019-04-27T03:02:06.430Z,12.20
2019-04-27T03:04:39.868Z,12.10
2019-04-27T03:07:11.447Z,12.10
2019-04-27T03:09:42.827Z,12.00
2019-04-27T03:12:15.453Z,12.00
2019-04-27T03:15:04.235Z,12.00
2019-04-27T03:17:44.271Z,11.90
2019-04-27T03:20:37.391Z,11.90
2019-04-27T03:23:09.936Z,11.90
2019-04-27T03:26:02.741Z,11.80
2019-04-27T03:28:33.850Z,11.70
2019-04-27T03:31:05.012Z,11.70
2019-04-27T03:33:36.263Z,11.60
2019-04-27T03:36:07.562Z,11.60
2019-04-27T03:38:39.632Z,11.60
2019-04-27T03:41:11.080Z,11.60
2019-04-27T03:43:42.273Z,11.60
2019-04-27T03:46:13.338Z,11.60
2019-04-27T03:48:44.440Z,11.60
2019-04-27T03:51:30.385Z,11.50
2019-04-27T03:54:29.853Z,11.50
2019-04-27T03:57:05.183Z,11.50
2019-04-27T03:59:54.355Z,11.50
2019-04-27T04:02:26.466Z,11.50
2019-04-27T04:04:59.623Z,11.40
2019-04-27T04:07:30.393Z,11.40
2019-04-27T04:10:02.415Z,11.50
2019-04-27T04:12:43.521Z,11.50
2019-04-27T04:15:23.241Z,11.50
2019-04-27T04:17:54.287Z,11.50
2019-04-27T04:20:25.376Z,11.50
2019-04-27T04:22:56.439Z,11.50
2019-04-27T04:25:30.226Z,11.50
2019-04-27T04:28:00.726Z,11.50
2019-04-27T04:30:31.844Z,11.50
2019-04-27T04:33:02.962Z,11.50
2019-04-27T04:35:34.054Z,11.40
2019-04-27T04:38:05.227Z,11.40
2019-04-27T04:40:44.653Z,11.40
2019-04-27T04:43:21.452Z,11.40
2019-04-27T04:46:14.454Z,11.40
2019-04-27T04:48:45.630Z,11.40
2019-04-27T04:51:16.667Z,11.40
2019-04-27T04:53:48.859Z,11.40
2019-04-27T04:56:20.543Z,11.30
2019-04-27T04:58:51.752Z,11.30
2019-04-27T05:01:22.841Z,11.30
2019-04-27T05:03:53.912Z,11.20
2019-04-27T05:06:25.566Z,11.20
2019-04-27T05:08:56.749Z,11.20
2019-04-27T05:11:29.612Z,11.10
2019-04-27T05:14:01.543Z,11.10
2019-04-27T05:16:32.981Z,11.00
2019-04-27T05:19:04.219Z,11.00
2019-04-27T05:21:35.837Z,10.90
2019-04-27T05:24:06.970Z,10.90
2019-04-27T05:26:39.603Z,10.90
2019-04-27T05:29:10.916Z,10.80
2019-04-27T05:31:42.014Z,10.80
2019-04-27T05:34:13.090Z,10.80
2019-04-27T05:36:48.513Z,10.80
2019-04-27T05:39:18.064Z,10.80
2019-04-27T05:41:49.823Z,10.80
2019-04-27T05:44:45.515Z,10.80
2019-04-27T05:47:20.657Z,10.80
2019-04-27T05:50:17.261Z,10.80
2019-04-27T05:52:46.111Z,10.80
2019-04-27T05:55:17.184Z,10.90
2019-04-27T05:57:49.019Z,10.90
2019-04-27T06:00:21.614Z,11.00
2019-04-27T06:02:52.730Z,11.00
2019-04-27T06:05:23.850Z,11.00
2019-04-27T06:07:54.968Z,10.90
2019-04-27T06:10:26.168Z,10.90
2019-04-27T06:13:05.052Z,10.90
2019-04-27T06:15:36.208Z,10.90
2019-04-27T06:18:09.199Z,10.90
2019-04-27T06:20:51.269Z,10.90
2019-04-27T06:23:12.913Z,10.90
2019-04-27T06:25:44.084Z,10.90
2019-04-27T06:28:15.154Z,11.00
2019-04-27T06:30:46.201Z,11.00
2019-04-27T06:33:29.257Z,11.00
2019-04-27T06:35:50.089Z,11.00
2019-04-27T06:38:21.183Z,11.00
2019-04-27T06:40:52.353Z,11.10
2019-04-27T06:43:23.508Z,11.00
2019-04-27T06:45:54.631Z,11.00
2019-04-27T06:48:25.749Z,11.00
2019-04-27T06:51:02.665Z,11.00
2019-04-27T06:53:29.641Z,11.10
2019-04-27T06:56:00.686Z,11.10
2019-04-27T06:58:31.832Z,11.00
2019-04-27T07:01:02.932Z,11.10
2019-04-27T07:03:35.688Z,11.10
2019-04-27T07:06:08.717Z,11.10
2019-04-27T07:08:40.073Z,11.00
2019-04-27T07:11:11.482Z,11.10
2019-04-27T07:13:44.308Z,11.00
2019-04-27T07:16:15.369Z,10.90
2019-04-27T07:18:46.562Z,10.90
2019-04-27T07:21:22.808Z,10.90
2019-04-27T07:24:00.693Z,10.90
2019-04-27T07:26:36.521Z,10.90
2019-04-27T07:29:15.600Z,10.90
2019-04-27T07:31:50.004Z,10.90
2019-04-27T07:34:24.130Z,10.90
2019-04-27T07:36:57.319Z,10.90
2019-04-27T07:39:29.432Z,11.00
2019-04-27T07:42:00.762Z,11.10
2019-04-27T07:44:38.964Z,11.20
2019-04-27T07:47:24.634Z,11.30
2019-04-27T07:49:55.792Z,11.40
2019-04-27T07:52:28.619Z,11.40
2019-04-27T07:54:59.875Z,11.40
2019-04-27T07:57:30.995Z,11.40
2019-04-27T08:00:02.087Z,11.40
2019-04-27T08:02:34.763Z,11.30
2019-04-27T08:05:06.351Z,11.40
2019-04-27T08:07:39.058Z,11.40
2019-04-27T08:10:10.382Z,11.60
2019-04-27T08:12:41.540Z,11.70
2019-04-27T08:15:12.924Z,11.80
2019-04-27T08:17:44.211Z,11.80
2019-04-27T08:20:15.424Z,11.80
2019-04-27T08:22:46.534Z,11.80
2019-04-27T08:25:18.968Z,11.80
2019-04-27T08:27:57.526Z,11.80
2019-04-27T08:30:53.699Z,11.80
2019-04-27T08:33:25.714Z,11.80
2019-04-27T08:35:59.084Z,11.80
2019-04-27T08:38:30.586Z,11.80
2019-04-27T08:41:01.878Z,11.70
2019-04-27T08:43:34.614Z,11.80
2019-04-27T08:46:06.059Z,11.80
2019-04-27T08:48:39.358Z,11.80
2019-04-27T08:51:10.123Z,11.90
2019-04-27T08:53:41.249Z,11.90
2019-04-27T08:56:12.460Z,11.90
2019-04-27T08:58:43.680Z,11.90
2019-04-27T09:01:16.285Z,11.80
2019-04-27T09:03:47.413Z,11.70
2019-04-27T09:06:19.068Z,11.70
2019-04-27T09:09:00.433Z,11.60
2019-04-27T09:11:40.059Z,11.60
2019-04-27T09:14:16.975Z,11.60
2019-04-27T09:17:10.331Z,11.50
2019-04-27T09:20:01.275Z,11.50
2019-04-27T09:22:32.420Z,11.40
2019-04-27T09:25:06.714Z,11.30
2019-04-27T09:27:39.022Z,11.30
2019-04-27T09:30:10.540Z,11.30
2019-04-27T09:32:42.739Z,11.30
2019-04-27T09:35:15.838Z,11.30
2019-04-27T09:37:47.325Z,11.30
2019-04-27T09:40:18.655Z,11.30
2019-04-27T09:42:49.983Z,11.30
2019-04-27T09:45:21.272Z,11.30
2019-04-27T09:47:52.517Z,11.40
2019-04-27T09:50:23.703Z,11.40
2019-04-27T09:52:55.726Z,11.40
2019-04-27T09:55:26.965Z,11.50
2019-04-27T09:57:58.215Z,11.60
2019-04-27T10:00:29.464Z,11.60
2019-04-27T10:03:00.917Z,11.70
2019-04-27T10:05:32.139Z,11.60
2019-04-27T10:08:03.316Z,11.60
2019-04-27T10:10:34.610Z,11.70
2019-04-27T10:13:07.035Z,11.80
2019-04-27T10:15:38.529Z,12.10
2019-04-27T10:18:09.684Z,12.40
2019-04-27T10:20:41.205Z,12.60
2019-04-27T10:23:12.349Z,12.70
2019-04-27T10:25:43.528Z,12.70
2019-04-27T10:28:14.750Z,12.50
2019-04-27T10:30:45.959Z,12.40
2019-04-27T10:33:17.524Z,12.40
2019-04-27T10:35:48.721Z,12.30
2019-04-27T10:38:19.899Z,12.20
2019-04-27T10:40:50.901Z,12.30
2019-04-27T10:43:22.059Z,12.30
2019-04-27T10:45:53.227Z,12.30
2019-04-27T10:48:26.302Z,12.40
2019-04-27T10:50:57.143Z,12.60
2019-04-27T10:53:28.228Z,12.90
2019-04-27T10:55:59.377Z,13.00
2019-04-27T10:58:30.862Z,13.10
2019-04-27T11:01:03.586Z,13.10
2019-04-27T11:03:52.379Z,13.10
2019-04-27T11:06:35.889Z,13.10
2019-04-27T11:09:09.617Z,13.00
2019-04-27T11:11:41.232Z,13.00
2019-04-27T11:14:12.567Z,13.00
2019-04-27T11:16:45.696Z,13.10
2019-04-27T11:19:17.003Z,13.20
2019-04-27T11:21:48.347Z,13.40
2019-04-27T11:24:19.535Z,13.50
2019-04-27T11:26:50.668Z,13.70
2019-04-27T11:29:21.808Z,13.90
2019-04-27T11:31:53.120Z,14.10
2019-04-27T11:34:43.195Z,14.30
2019-04-27T11:37:18.311Z,14.50
2019-04-27T11:39:49.584Z,14.60
2019-04-27T11:42:20.752Z,14.60
2019-04-27T11:44:51.869Z,14.70
2019-04-27T11:47:23.146Z,14.60
2019-04-27T11:49:54.331Z,14.50
2019-04-27T11:52:25.489Z,14.50
2019-04-27T11:54:56.562Z,14.50
2019-04-27T11:57:27.708Z,14.40
2019-04-27T11:59:58.926Z,14.50
2019-04-27T12:02:30.170Z,14.40
2019-04-27T12:05:01.342Z,14.20
2019-04-27T12:07:32.908Z,14.10
2019-04-27T12:10:05.712Z,14.00
2019-04-27T12:12:36.985Z,14.00
2019-04-27T12:15:09.580Z,14.10
2019-04-27T12:17:40.636Z,14.10
2019-04-27T12:20:21.413Z,14.20
2019-04-27T12:22:58.669Z,14.10
2019-04-27T12:25:37.582Z,14.10
2019-04-27T12:28:35.567Z,14.20
2019-04-27T12:31:10.868Z,14.40
2019-04-27T12:33:42.233Z,14.30
2019-04-27T12:36:13.634Z,14.30
2019-04-27T12:38:46.754Z,14.20
2019-04-27T12:41:18.075Z,14.20
2019-04-27T12:43:56.071Z,14.40
2019-04-27T12:46:29.020Z,14.50
2019-04-27T12:49:00.261Z,14.60
2019-04-27T12:51:31.531Z,14.60
2019-04-27T12:54:09.111Z,14.70
2019-04-27T12:56:58.106Z,14.70
2019-04-27T12:59:47.102Z,14.70
2019-04-27T13:02:19.666Z,14.60
2019-04-27T13:04:50.800Z,14.50
2019-04-27T13:07:23.059Z,14.60
2019-04-27T13:09:54.209Z,14.80
2019-04-27T13:12:27.203Z,14.70
2019-04-27T13:14:58.462Z,14.70
2019-04-27T13:17:29.681Z,14.70
2019-04-27T13:20:00.765Z,14.80
2019-04-27T13:22:33.482Z,14.90
2019-04-27T13:25:05.751Z,15.00
2019-04-27T13:27:37.101Z,15.10
2019-04-27T13:30:09.818Z,15.00
2019-04-27T13:32:42.254Z,14.90
2019-04-27T13:35:15.735Z,14.90
2019-04-27T13:37:46.856Z,14.80
2019-04-27T13:40:18.733Z,14.80
2019-04-27T13:42:57.532Z,14.80
2019-04-27T13:45:43.998Z,14.80
2019-04-27T13:48:46.775Z,14.90
2019-04-27T13:51:33.376Z,15.00
2019-04-27T13:54:17.196Z,15.10
2019-04-27T13:56:38.843Z,15.20
2019-04-27T13:59:11.198Z,15.30
2019-04-27T14:01:43.464Z,15.30
2019-04-27T14:04:14.932Z,15.30
2019-04-27T14:06:46.258Z,15.30
2019-04-27T14:09:19.194Z,15.40
2019-04-27T14:11:51.896Z,15.50
2019-04-27T14:14:23.195Z,15.60
2019-04-27T14:16:54.465Z,15.70
2019-04-27T14:19:25.782Z,15.80
2019-04-27T14:21:58.980Z,15.90
2019-04-27T14:24:42.588Z,16.00
2019-04-27T14:27:13.895Z,16.10
2019-04-27T14:29:45.199Z,16.10
2019-04-27T14:32:16.610Z,16.10
2019-04-27T14:34:50.039Z,16.00
2019-04-27T14:37:20.932Z,16.00
2019-04-27T14:39:52.278Z,15.80
2019-04-27T14:42:23.758Z,15.80
2019-04-27T14:44:55.021Z,15.80
2019-04-27T14:47:26.504Z,15.90
2019-04-27T14:49:58.980Z,16.00
2019-04-27T14:52:30.855Z,16.10
2019-04-27T14:55:02.732Z,16.00
2019-04-27T14:57:34.574Z,15.80
2019-04-27T15:00:06.063Z,15.80
2019-04-27T15:02:39.229Z,15.80
2019-04-27T15:05:10.730Z,15.80
2019-04-27T15:07:41.964Z,15.80
2019-04-27T15:10:14.027Z,16.10
2019-04-27T15:12:46.304Z,16.40
2019-04-27T15:15:17.504Z,16.60
2019-04-27T15:17:49.451Z,16.70
2019-04-27T15:20:28.461Z,16.90
2019-04-27T15:23:00.119Z,16.90
2019-04-27T15:25:34.976Z,16.80
2019-04-27T15:28:07.521Z,16.70
2019-04-27T15:31:04.053Z,16.90
2019-04-27T15:33:54.656Z,16.90
2019-04-27T15:36:39.136Z,16.80
2019-04-27T15:39:18.243Z,16.80
2019-04-27T15:41:53.683Z,16.70
2019-04-27T15:44:24.849Z,16.60
2019-04-27T15:46:57.920Z,16.50
2019-04-27T15:49:28.875Z,16.40
2019-04-27T15:52:00.195Z,16.30
2019-04-27T15:54:32.512Z,16.10
2019-04-27T15:57:05.828Z,16.10
2019-04-27T15:59:39.638Z,15.90
2019-04-27T16:02:15.236Z,15.80
2019-04-27T16:04:44.335Z,15.60
2019-04-27T16:07:18.157Z,15.60
2019-04-27T16:09:48.877Z,15.50
2019-04-27T16:12:20.080Z,15.50
2019-04-27T16:14:51.350Z,15.60
2019-04-27T16:17:22.530Z,15.80
2019-04-27T16:19:53.656Z,16.00
2019-04-27T16:22:26.900Z,16.20
2019-04-27T16:24:58.142Z,16.30
2019-04-27T16:27:34.099Z,16.30
2019-04-27T16:30:09.680Z,16.30
2019-04-27T16:32:36.078Z,16.20
2019-04-27T16:35:14.086Z,16.10
2019-04-27T16:38:05.366Z,16.00
2019-04-27T16:40:36.649Z,15.90
2019-04-27T16:43:23.835Z,15.90
2019-04-27T16:45:52.504Z,15.80
2019-04-27T16:48:29.621Z,15.70
2019-04-27T16:50:59.361Z,15.50
2019-04-27T16:53:30.056Z,15.40
2019-04-27T16:56:14.404Z,15.30
2019-04-27T16:58:40.890Z,15.20
2019-04-27T17:01:20.473Z,15.20
2019-04-27T17:03:51.947Z,15.10
2019-04-27T17:06:24.830Z,15.10
2019-04-27T17:08:57.390Z,15.10
2019-04-27T17:11:29.832Z,15.10
2019-04-27T17:14:22.396Z,15.00
2019-04-27T17:17:11.959Z,15.00
2019-04-27T17:19:51.609Z,14.90
2019-04-27T17:22:20.926Z,14.80
2019-04-27T17:24:52.547Z,14.70
2019-04-27T17:27:48.301Z,14.50
2019-04-27T17:30:21.205Z,14.40
2019-04-27T17:33:10.510Z,14.20
2019-04-27T17:35:39.510Z,14.10
2019-04-27T17:38:12.408Z,14.00
2019-04-27T17:40:42.835Z,13.90
2019-04-27T17:43:14.151Z,13.80
2019-04-27T17:45:45.412Z,13.70
2019-04-27T17:48:18.409Z,13.50
2019-04-27T17:50:50.090Z,13.30
2019-04-27T17:53:25.173Z,13.10
2019-04-27T17:55:55.089Z,12.90
2019-04-27T17:58:30.499Z,12.70
2019-04-27T18:01:09.486Z,12.50
2019-04-27T18:03:45.734Z,12.30
2019-04-27T18:06:20.412Z,12.20
2019-04-27T18:08:54.999Z,12.10
2019-04-27T18:11:28.859Z,12.00
2019-04-27T18:14:01.495Z,11.90
2019-04-27T18:16:34.507Z,11.80
2019-04-27T18:19:28.967Z,11.60
2019-04-27T18:22:04.542Z,11.60
2019-04-27T18:24:41.412Z,11.40
2019-04-27T18:27:22.470Z,11.30
2019-04-27T18:29:55.325Z,11.20
2019-04-27T18:32:27.673Z,11.10
2019-04-27T18:35:00.288Z,11.00
2019-04-27T18:37:31.902Z,11.00
2019-04-27T18:40:03.339Z,10.90
2019-04-27T18:42:35.602Z,10.80
2019-04-27T18:45:08.382Z,10.80
2019-04-27T18:47:42.894Z,10.70
2019-04-27T18:50:25.799Z,10.60
2019-04-27T18:53:08.250Z,10.60
2019-04-27T18:55:39.400Z,10.50
2019-04-27T18:58:10.605Z,10.50
2019-04-27T19:00:41.765Z,10.40
2019-04-27T19:03:13.071Z,10.40
2019-04-27T19:05:44.336Z,10.30
2019-04-27T19:08:15.511Z,10.30
2019-04-27T19:10:46.582Z,10.20
2019-04-27T19:13:19.197Z,10.10
2019-04-27T19:15:50.639Z,10.00
2019-04-27T19:18:21.881Z,10.00
2019-04-27T19:20:53.296Z,9.90
2019-04-27T19:23:24.587Z,9.80
2019-04-27T19:26:13.311Z,9.80
2019-04-27T19:28:58.439Z,9.70
2019-04-27T19:31:33.438Z,9.60
2019-04-27T19:34:06.896Z,9.60
2019-04-27T19:36:38.646Z,9.60
2019-04-27T19:39:14.050Z,9.50
2019-04-27T19:41:57.968Z,9.50
2019-04-27T19:44:19.846Z,9.40
2019-04-27T19:46:51.041Z,9.30
2019-04-27T19:49:22.256Z,9.30
2019-04-27T19:51:53.535Z,9.20
2019-04-27T19:54:24.737Z,9.10
2019-04-27T19:56:55.920Z,9.10
2019-04-27T19:59:35.091Z,9.00
2019-04-27T20:02:10.788Z,9.00
2019-04-27T20:04:44.122Z,9.00
2019-04-27T20:07:15.384Z,9.00
2019-04-27T20:09:58.502Z,9.00
2019-04-27T20:12:31.376Z,9.00
2019-04-27T20:15:02.934Z,9.00
2019-04-27T20:17:34.866Z,9.00
2019-04-27T20:20:06.614Z,8.90
2019-04-27T20:22:37.865Z,8.90
2019-04-27T20:25:11.077Z,8.90
2019-04-27T20:27:46.970Z,8.90
2019-04-27T20:30:16.302Z,8.80
2019-04-27T20:32:47.736Z,8.80
2019-04-27T20:35:19.145Z,8.80
2019-04-27T20:37:51.849Z,8.80
2019-04-27T20:40:23.227Z,8.80
2019-04-27T20:42:54.393Z,8.80
2019-04-27T20:45:25.747Z,8.70
2019-04-27T20:47:57.331Z,8.70
2019-04-27T20:50:28.703Z,8.70
2019-04-27T20:53:06.792Z,8.70
2019-04-27T20:55:38.485Z,8.70
2019-04-27T20:58:11.195Z,8.70
2019-04-27T21:00:42.506Z,8.60
2019-04-27T21:03:22.630Z,8.60
2019-04-27T21:06:18.887Z,8.60
2019-04-27T21:08:51.437Z,8.60
2019-04-27T21:11:22.935Z,8.60
2019-04-27T21:14:02.913Z,8.50
2019-04-27T21:16:34.101Z,8.50
2019-04-27T21:19:05.314Z,8.50
2019-04-27T21:21:37.520Z,8.50
2019-04-27T21:24:08.751Z,8.40
2019-04-27T21:26:41.821Z,8.40
2019-04-27T21:29:12.886Z,8.40
2019-04-27T21:31:44.206Z,8.40
2019-04-27T21:34:15.433Z,8.40
2019-04-27T21:36:46.745Z,8.30
2019-04-27T21:39:19.085Z,8.30
2019-04-27T21:41:51.768Z,8.30
2019-04-27T21:44:23.365Z,8.20
2019-04-27T21:46:54.813Z,8.20
2019-04-27T21:49:26.020Z,8.20
2019-04-27T21:52:14.525Z,8.20
2019-04-27T21:54:45.731Z,8.10
2019-04-27T21:57:16.998Z,8.10
2019-04-27T21:59:48.190Z,8.10
2019-04-27T22:02:20.299Z,8.10
2019-04-27T22:04:52.937Z,8.10
2019-04-27T22:07:24.254Z,8.10
2019-04-27T22:09:55.412Z,8.10
2019-04-27T22:12:26.610Z,8.10
2019-04-27T22:14:57.656Z,8.00
2019-04-27T22:17:28.826Z,8.00
2019-04-27T22:20:01.458Z,8.00
2019-04-27T22:22:41.385Z,8.00
2019-04-27T22:25:12.887Z,8.00
2019-04-27T22:27:44.023Z,8.00
2019-04-27T22:30:15.211Z,8.00
2019-04-27T22:32:46.266Z,8.00
2019-04-27T22:35:17.419Z,8.00
2019-04-27T22:37:48.513Z,8.00
2019-04-27T22:40:37.097Z,8.00
2019-04-27T22:43:41.170Z,7.90
2019-04-27T22:46:13.916Z,7.90
2019-04-27T22:48:45.120Z,7.90
2019-04-27T22:51:16.211Z,7.90
2019-04-27T22:53:47.362Z,7.90
2019-04-27T22:56:22.325Z,7.90
2019-04-27T22:59:00.978Z,7.80
2019-04-27T23:01:52.378Z,7.80
